Time;durP1;ratioP1;P1;durP2;ratioP2;P2;SDS_P1;SDS_P2;PMS_P1;PMS_P2;Temp;Humidity;BMP_temperature;BMP_pressure;BME280_temperature;BME280_humidity;BME280_pressure;Samples;Min_cycle;Max_cycle;Signal;HPM_P1;HPM_P2
2022/09/07 04:31:49;;;;;;;;;1.00;1.00;;;;;;;;5305200;23;46210;-62
2022/09/07 04:34:14;;;;;;;;;4.00;2.33;;;;;;;;5002888;28;45395;-61
2022/09/07 04:36:40;;;;;;;;;2.00;2.00;;;;;;;;5015144;28;45421;-61
2022/09/07 04:39:05;;;;;;;;;5.00;2.00;;;;;;;;5006006;28;45538;-61
2022/09/07 04:41:31;;;;;;;;;1.67;1.67;;;;;;;;5003119;28;45964;-61
2022/09/07 04:44:01;;;;;;;;;1.00;1.00;;;;;;;;5001115;28;45312;-61
2022/09/07 04:46:28;;;;;;;;;2.00;2.00;;;;;;;;4996905;28;45536;-61
2022/09/07 04:48:55;;;;;;;;;1.67;1.67;;;;;;;;5001135;28;45269;-61
2022/09/07 04:51:21;;;;;;;;;1.33;1.00;;;;;;;;5003505;28;46330;-60
2022/09/07 04:53:47;;;;;;;;;4.67;2.00;;;;;;;;5008687;28;45428;-60
2022/09/07 04:56:12;;;;;;;;;4.00;2.67;;;;;;;;5009245;28;45390;-61
2022/09/07 04:58:37;;;;;;;;;2.00;2.00;;;;;;;;5005003;28;45606;-61
2022/09/07 05:01:04;;;;;;;;;1.00;1.00;;;;;;;;4999612;28;46879;-60
2022/09/07 05:03:30;;;;;;;;;2.67;2.67;;;;;;;;5006279;28;45468;-60
2022/09/07 05:05:55;;;;;;;;;1.00;1.00;;;;;;;;5001741;28;45273;-61
2022/09/07 05:08:20;;;;;;;;;3.67;2.00;;;;;;;;4994010;28;45360;-62
2022/09/07 05:10:52;;;;;;;;;2.00;1.67;;;;;;;;4988924;28;45228;-62
2022/09/07 05:13:17;;;;;;;;;1.67;1.67;;;;;;;;5001896;28;45388;-60
2022/09/07 05:15:43;;;;;;;;;2.00;1.67;;;;;;;;4993614;28;45273;-62
2022/09/07 05:18:08;;;;;;;;;1.00;1.00;;;;;;;;4999686;28;45473;-62
2022/09/07 05:20:33;;;;;;;;;3.00;2.00;;;;;;;;4999867;28;45673;-62
2022/09/07 05:22:58;;;;;;;;;1.00;1.00;;;;;;;;4994768;28;45288;-62
2022/09/07 05:25:25;;;;;;;;;2.33;1.00;;;;;;;;4999836;28;45406;-62
2022/09/07 05:27:51;;;;;;;;;5.00;1.33;;;;;;;;4993946;28;45524;-62
2022/09/07 05:30:16;;;;;;;;;3.00;1.00;;;;;;;;4996175;28;46375;-62
2022/09/07 05:32:43;;;;;;;;;3.33;3.33;;;;;;;;5011969;28;45356;-61
2022/09/07 05:35:08;;;;;;;;;2.67;2.67;;;;;;;;5004654;28;45389;-62
2022/09/07 05:37:34;;;;;;;;;1.67;1.00;;;;;;;;5005091;28;45322;-62
2022/09/07 05:39:59;;;;;;;;;3.00;3.00;;;;;;;;4988386;28;46395;-60
2022/09/07 05:42:24;;;;;;;;;2.67;2.00;;;;;;;;4999844;28;45902;-60
2022/09/07 05:44:50;;;;;;;;;1.33;1.33;;;;;;;;4999944;28;45283;-60
2022/09/07 05:47:15;;;;;;;;;2.00;1.67;;;;;;;;4993074;28;46356;-61
2022/09/07 05:49:40;;;;;;;;;2.00;2.00;;;;;;;;5014837;28;46121;-60
2022/09/07 05:52:05;;;;;;;;;1.33;1.33;;;;;;;;5003740;28;45547;-61
2022/09/07 05:54:31;;;;;;;;;4.00;2.67;;;;;;;;4994139;28;45884;-61
2022/09/07 05:56:56;;;;;;;;;4.00;3.00;;;;;;;;5000202;28;45375;-61
2022/09/07 05:59:21;;;;;;;;;6.00;2.00;;;;;;;;4993952;28;45285;-61
2022/09/07 06:01:46;;;;;;;;;3.67;2.67;;;;;;;;4986550;28;45518;-61
2022/09/07 06:04:11;;;;;;;;;3.00;3.00;;;;;;;;4994002;28;45478;-62
2022/09/07 06:06:39;;;;;;;;;3.00;2.00;;;;;;;;4985937;28;45435;-61
2022/09/07 06:09:05;;;;;;;;;2.33;2.00;;;;;;;;4995308;28;46270;-61
2022/09/07 06:11:30;;;;;;;;;2.67;2.00;;;;;;;;4999882;28;45485;-61
2022/09/07 06:13:56;;;;;;;;;2.33;2.00;;;;;;;;4995856;28;45321;-61
2022/09/07 06:16:21;;;;;;;;;2.67;2.00;;;;;;;;4989911;28;45643;-62
2022/09/07 06:18:48;;;;;;;;;3.00;3.00;;;;;;;;4999712;28;46053;-61
2022/09/07 06:21:22;;;;;;;;;2.67;2.00;;;;;;;;4989246;28;45470;-62
2022/09/07 06:23:48;;;;;;;;;3.33;3.00;;;;;;;;4992933;28;45546;-61
2022/09/07 06:26:15;;;;;;;;;2.00;2.00;;;;;;;;4983472;28;45436;-61
2022/09/07 06:28:44;;;;;;;;;3.67;3.67;;;;;;;;4986576;28;46188;-64
2022/09/07 06:31:24;;;;;;;;;1.00;1.00;;;;;;;;4995977;28;45789;-64
2022/09/07 06:33:50;;;;;;;;;4.67;4.00;;;;;;;;4988129;28;45375;-64
2022/09/07 06:36:17;;;;;;;;;3.00;3.00;;;;;;;;4997910;28;45503;-61
2022/09/07 06:38:43;;;;;;;;;7.33;3.00;;;;;;;;4999669;28;45807;-62
2022/09/07 06:41:10;;;;;;;;;4.00;2.00;;;;;;;;5013660;28;45363;-62
2022/09/07 06:43:36;;;;;;;;;4.00;2.00;;;;;;;;4999168;28;45257;-62
2022/09/07 06:46:01;;;;;;;;;4.00;3.00;;;;;;;;5001815;28;45354;-61
2022/09/07 06:48:27;;;;;;;;;4.67;4.67;;;;;;;;4994659;28;46124;-62
2022/09/07 06:51:02;;;;;;;;;2.00;2.00;;;;;;;;4998977;28;45272;-62
2022/09/07 06:53:32;;;;;;;;;1.75;1.75;;;;;;;;5006421;28;45339;-62
2022/09/07 06:55:57;;;;;;;;;1.75;1.75;;;;;;;;4998491;28;45413;-62
2022/09/07 06:58:26;;;;;;;;;3.00;2.00;;;;;;;;4996306;28;45559;-62
2022/09/07 07:00:52;;;;;;;;;2.75;1.25;;;;;;;;4998839;28;45430;-62
2022/09/07 07:03:17;;;;;;;;;3.00;1.75;;;;;;;;5007705;28;45229;-62
2022/09/07 07:05:49;;;;;;;;;1.25;1.25;;;;;;;;4997481;28;45185;-62
2022/09/07 07:08:14;;;;;;;;;2.50;1.50;;;;;;;;4998787;28;45506;-62
2022/09/07 07:10:39;;;;;;;;;4.00;3.00;;;;;;;;5007491;28;45579;-62
2022/09/07 07:13:04;;;;;;;;;1.00;1.00;;;;;;;;5000188;28;45581;-62
2022/09/07 07:15:30;;;;;;;;;2.00;1.00;;;;;;;;5003671;28;45333;-62
2022/09/07 07:17:55;;;;;;;;;3.75;3.00;;;;;;;;5001610;28;45481;-62
2022/09/07 07:20:20;;;;;;;;;4.25;2.75;;;;;;;;4989231;28;45299;-62
2022/09/07 07:22:52;;;;;;;;;3.75;3.00;;;;;;;;4999576;28;45308;-62
2022/09/07 07:25:17;;;;;;;;;4.75;2.00;;;;;;;;4989261;28;45337;-62
2022/09/07 07:27:44;;;;;;;;;2.50;2.50;;;;;;;;4991430;28;46082;-62
2022/09/07 07:30:10;;;;;;;;;3.75;2.75;;;;;;;;4997913;28;45369;-62
2022/09/07 07:32:36;;;;;;;;;2.75;2.50;;;;;;;;4999670;28;45285;-62
2022/09/07 07:35:01;;;;;;;;;3.25;2.00;;;;;;;;4996097;28;45529;-60
2022/09/07 07:37:26;;;;;;;;;4.00;2.00;;;;;;;;4996771;28;45353;-61
2022/09/07 07:39:52;;;;;;;;;1.00;1.00;;;;;;;;4996203;28;45332;-62
2022/09/07 07:42:18;;;;;;;;;2.25;2.25;;;;;;;;4998129;28;45517;-62
2022/09/07 07:44:43;;;;;;;;;2.75;2.75;;;;;;;;5009426;28;45225;-62
2022/09/07 07:47:08;;;;;;;;;5.00;2.25;;;;;;;;4996390;28;45374;-62
2022/09/07 07:49:33;;;;;;;;;7.50;2.00;;;;;;;;4998878;28;45436;-62
2022/09/07 07:51:59;;;;;;;;;4.50;3.00;;;;;;;;4996638;28;45336;-62
2022/09/07 07:54:24;;;;;;;;;2.25;2.25;;;;;;;;5008333;28;45138;-62
2022/09/07 07:56:49;;;;;;;;;4.00;1.00;;;;;;;;4997617;28;45529;-62
2022/09/07 07:59:14;;;;;;;;;4.75;2.00;;;;;;;;4996041;28;45393;-62
2022/09/07 08:01:39;;;;;;;;;4.25;2.50;;;;;;;;4997689;28;45163;-62
2022/09/07 08:04:05;;;;;;;;;2.00;2.00;;;;;;;;4996882;28;45234;-62
2022/09/07 08:06:30;;;;;;;;;1.00;1.00;;;;;;;;5000743;28;45990;-62
2022/09/07 08:08:55;;;;;;;;;3.00;3.00;;;;;;;;4998623;28;45248;-62
2022/09/07 08:11:21;;;;;;;;;2.00;2.00;;;;;;;;4988793;28;45484;-62
2022/09/07 08:13:51;;;;;;;;;3.00;3.00;;;;;;;;4997125;28;45662;-61
2022/09/07 08:16:17;;;;;;;;;2.25;1.75;;;;;;;;4998669;28;45460;-61
2022/09/07 08:18:42;;;;;;;;;3.50;2.00;;;;;;;;4990873;28;45220;-62
2022/09/07 08:21:11;;;;;;;;;3.25;3.00;;;;;;;;4986674;28;45274;-61
2022/09/07 08:23:37;;;;;;;;;2.50;2.50;;;;;;;;4995734;28;45706;-62
2022/09/07 08:26:03;;;;;;;;;4.00;4.00;;;;;;;;4997617;28;46967;-61
2022/09/07 08:28:29;;;;;;;;;6.75;2.50;;;;;;;;4991804;28;45770;-61
2022/09/07 08:30:55;;;;;;;;;4.50;4.00;;;;;;;;4996880;28;45382;-61
2022/09/07 08:33:21;;;;;;;;;5.75;3.50;;;;;;;;4998155;28;45293;-61
2022/09/07 08:35:54;;;;;;;;;2.75;2.00;;;;;;;;4998993;28;45447;-62
2022/09/07 08:38:19;;;;;;;;;5.50;2.00;;;;;;;;4992975;28;45492;-62
2022/09/07 08:40:44;;;;;;;;;6.50;3.00;;;;;;;;4995854;28;45300;-62
2022/09/07 08:43:28;;;;;;;;;2.00;1.50;;;;;;;;4997315;28;45296;-61
2022/09/07 08:45:56;;;;;;;;;6.33;3.33;;;;;;;;4994668;28;46255;-62
2022/09/07 08:48:26;;;;;;;;;3.50;2.25;;;;;;;;4998244;28;45270;-62
2022/09/07 08:50:54;;;;;;;;;4.50;2.25;;;;;;;;4992701;28;45219;-62
2022/09/07 08:53:21;;;;;;;;;5.50;2.75;;;;;;;;4998389;28;45359;-61
2022/09/07 08:55:49;;;;;;;;;5.00;3.50;;;;;;;;4994151;28;46113;-61
2022/09/07 08:58:46;;;;;;;;;6.50;3.25;;;;;;;;4997779;28;45349;-61
2022/09/07 09:01:12;;;;;;;;;5.75;2.75;;;;;;;;4973558;28;46783;-61
2022/09/07 09:03:39;;;;;;;;;4.25;2.75;;;;;;;;4995757;28;45530;-62
2022/09/07 09:06:21;;;;;;;;;5.25;3.25;;;;;;;;4996757;28;45412;-61
2022/09/07 09:08:53;;;;;;;;;1.50;1.00;;;;;;;;4995433;28;47225;-62
2022/09/07 09:11:18;;;;;;;;;4.75;3.00;;;;;;;;4996605;28;45396;-62
2022/09/07 09:13:50;;;;;;;;;4.75;2.50;;;;;;;;4996620;28;45532;-62
2022/09/07 09:16:32;;;;;;;;;4.75;2.00;;;;;;;;4997410;28;45579;-62
2022/09/07 09:18:58;;;;;;;;;5.75;2.00;;;;;;;;4984816;28;45441;-62
2022/09/07 09:21:23;;;;;;;;;6.00;2.75;;;;;;;;4994498;28;45367;-62
2022/09/07 09:23:51;;;;;;;;;3.75;2.25;;;;;;;;4998869;28;45402;-62
2022/09/07 09:26:16;;;;;;;;;5.25;3.25;;;;;;;;4996275;28;46200;-62
2022/09/07 09:28:41;;;;;;;;;1.75;1.75;;;;;;;;5000612;28;45351;-62
2022/09/07 09:31:14;;;;;;;;;3.75;2.75;;;;;;;;4999615;28;45332;-62
2022/09/07 09:33:39;;;;;;;;;2.00;2.00;;;;;;;;4992170;28;45389;-61
2022/09/07 09:36:21;;;;;;;;;5.00;3.75;;;;;;;;4994768;28;46060;-62
2022/09/07 09:38:46;;;;;;;;;4.00;3.00;;;;;;;;5011501;28;45394;-62
2022/09/07 09:41:12;;;;;;;;;3.50;3.50;;;;;;;;5000538;28;45198;-62
2022/09/07 09:43:44;;;;;;;;;2.00;2.00;;;;;;;;4994448;28;45487;-62
2022/09/07 09:46:25;;;;;;;;;6.00;3.00;;;;;;;;4998429;28;45981;-62
2022/09/07 09:48:54;;;;;;;;;4.50;2.75;;;;;;;;5000624;28;45660;-62
2022/09/07 09:51:20;;;;;;;;;4.33;2.67;;;;;;;;4998515;28;45512;-62
2022/09/07 09:53:52;;;;;;;;;1.50;1.50;;;;;;;;4983099;28;45218;-62
2022/09/07 09:56:17;;;;;;;;;4.75;3.75;;;;;;;;4999711;28;45289;-62
2022/09/07 09:58:46;;;;;;;;;2.00;1.25;;;;;;;;4998057;28;45454;-61
2022/09/07 10:01:21;;;;;;;;;5.25;2.00;;;;;;;;5000437;28;45315;-63
2022/09/07 10:03:47;;;;;;;;;7.00;3.00;;;;;;;;4995608;28;45929;-61
2022/09/07 10:06:16;;;;;;;;;5.50;1.50;;;;;;;;5000514;28;46326;-63
2022/09/07 10:08:56;;;;;;;;;3.25;2.50;;;;;;;;4997815;28;45401;-62
2022/09/07 10:11:39;;;;;;;;;2.00;2.00;;;;;;;;4991983;28;45773;-63
2022/09/07 10:14:04;;;;;;;;;3.75;1.75;;;;;;;;4992980;28;45478;-62
2022/09/07 10:16:38;;;;;;;;;3.00;2.25;;;;;;;;4986279;28;45222;-62
2022/09/07 10:19:03;;;;;;;;;5.75;4.00;;;;;;;;4991048;28;45302;-62
2022/09/07 10:21:29;;;;;;;;;4.00;2.00;;;;;;;;4987777;28;45299;-63
2022/09/07 10:23:59;;;;;;;;;4.50;3.00;;;;;;;;4999575;28;45517;-66
2022/09/07 10:26:32;;;;;;;;;5.75;2.75;;;;;;;;4993468;28;46392;-64
2022/09/07 10:29:10;;;;;;;;;2.25;1.75;;;;;;;;4989710;28;45358;-64
2022/09/07 10:31:39;;;;;;;;;2.75;2.00;;;;;;;;4990205;28;45299;-64
2022/09/07 10:34:04;;;;;;;;;4.75;2.00;;;;;;;;4990711;28;45825;-64
2022/09/07 10:36:45;;;;;;;;;3.00;3.00;;;;;;;;4992902;28;46914;-65
2022/09/07 10:39:13;;;;;;;;;1.00;1.00;;;;;;;;4999965;28;45317;-65
2022/09/07 10:41:42;;;;;;;;;6.25;2.00;;;;;;;;4998992;28;45264;-64
2022/09/07 10:44:15;;;;;;;;;1.25;1.25;;;;;;;;4998255;28;45773;-63
2022/09/07 10:46:40;;;;;;;;;1.00;1.00;;;;;;;;4989411;28;46073;-63
2022/09/07 10:49:17;;;;;;;;;3.00;1.00;;;;;;;;4995474;28;45306;-62
2022/09/07 10:51:51;;;;;;;;;1.50;1.00;;;;;;;;4990393;28;45507;-63
2022/09/07 10:54:22;;;;;;;;;2.50;1.50;;;;;;;;4993231;28;45434;-63
2022/09/07 10:57:00;;;;;;;;;3.00;1.00;;;;;;;;4983074;28;46421;-63
2022/09/07 10:59:32;;;;;;;;;4.25;2.00;;;;;;;;4993031;28;45909;-60
2022/09/07 11:02:10;;;;;;;;;2.00;1.00;;;;;;;;4992650;28;45460;-62
2022/09/07 11:04:38;;;;;;;;;4.00;2.75;;;;;;;;5000237;28;45228;-62
2022/09/07 11:07:13;;;;;;;;;2.25;2.00;;;;;;;;4997702;28;46972;-62
2022/09/07 11:09:50;;;;;;;;;2.00;1.25;;;;;;;;4998252;28;45424;-62
2022/09/07 11:12:20;;;;;;;;;3.00;1.25;;;;;;;;4992243;28;45378;-62
2022/09/07 11:14:46;;;;;;;;;1.50;1.00;;;;;;;;4987053;28;45272;-62
2022/09/07 11:17:15;;;;;;;;;3.75;2.75;;;;;;;;5008558;28;46332;-62
2022/09/07 11:20:02;;;;;;;;;2.50;1.25;;;;;;;;4988953;28;45368;-62
2022/09/07 11:22:27;;;;;;;;;1.25;1.00;;;;;;;;4991442;28;45370;-62
2022/09/07 11:24:55;;;;;;;;;1.25;1.25;;;;;;;;4984974;28;45545;-62
2022/09/07 11:27:32;;;;;;;;;6.00;1.00;;;;;;;;4990825;28;46299;-61
2022/09/07 11:30:17;;;;;;;;;5.50;2.75;;;;;;;;4991329;28;45576;-62
2022/09/07 11:32:51;;;;;;;;;2.25;2.00;;;;;;;;4993817;28;45479;-61
2022/09/07 11:35:37;;;;;;;;;2.67;1.33;;;;;;;;4998903;28;45408;-62
2022/09/07 11:38:10;;;;;;;;;2.25;0.50;;;;;;;;4967313;28;45547;-62
2022/09/07 11:40:40;;;;;;;;;2.50;1.00;;;;;;;;4997948;28;45284;-62
2022/09/07 11:43:18;;;;;;;;;3.50;1.25;;;;;;;;4999414;28;45373;-62
2022/09/07 11:45:47;;;;;;;;;2.75;2.75;;;;;;;;4996767;28;45467;-63
2022/09/07 11:48:15;;;;;;;;;3.50;1.00;;;;;;;;4999941;28;45530;-63
2022/09/07 11:50:45;;;;;;;;;2.50;1.50;;;;;;;;5005573;28;46349;-63
2022/09/07 11:53:16;;;;;;;;;2.00;2.00;;;;;;;;4998554;28;45502;-61
2022/09/07 11:55:44;;;;;;;;;2.00;2.00;;;;;;;;4989440;28;45532;-62
2022/09/07 11:58:09;;;;;;;;;1.00;1.00;;;;;;;;4985120;28;46130;-60
2022/09/07 12:00:43;;;;;;;;;3.00;2.00;;;;;;;;4983143;28;45355;-62
2022/09/07 12:03:21;;;;;;;;;1.00;1.00;;;;;;;;5001537;28;45199;-61
2022/09/07 12:05:47;;;;;;;;;1.75;1.75;;;;;;;;4981846;28;45217;-61
2022/09/07 12:08:44;;;;;;;;;2.00;2.00;;;;;;;;5006426;28;47806;-61
2022/09/07 12:11:28;;;;;;;;;1.50;1.25;;;;;;;;4978107;28;45508;-61
2022/09/07 12:13:53;;;;;;;;;4.00;2.00;;;;;;;;5002832;28;45664;-61
2022/09/07 12:16:32;;;;;;;;;3.00;2.00;;;;;;;;5001783;28;45612;-61
2022/09/07 12:19:06;;;;;;;;;1.67;1.67;;;;;;;;4993464;28;45628;-61
2022/09/07 12:21:52;;;;;;;;;2.00;2.00;;;;;;;;4978521;28;45464;-61
2022/09/07 12:24:36;;;;;;;;;2.75;2.75;;;;;;;;4995992;28;45365;-62
2022/09/07 12:27:02;;;;;;;;;3.00;2.00;;;;;;;;4996037;28;45730;-61
2022/09/07 12:29:28;;;;;;;;;4.00;1.33;;;;;;;;4988027;28;45868;-62
2022/09/07 12:31:54;;;;;;;;;2.33;2.00;;;;;;;;4983576;28;46507;-62
2022/09/07 12:34:32;;;;;;;;;3.00;1.67;;;;;;;;4989951;28;45497;-62
2022/09/07 12:36:57;;;;;;;;;2.50;2.00;;;;;;;;4993345;28;45521;-61
2022/09/07 12:39:27;;;;;;;;;1.00;1.00;;;;;;;;4991779;28;45363;-61
2022/09/07 12:42:13;;;;;;;;;2.33;2.33;;;;;;;;4990360;28;45587;-62
2022/09/07 12:44:38;;;;;;;;;4.00;2.00;;;;;;;;4985061;28;45258;-61
2022/09/07 12:47:09;;;;;;;;;2.00;2.00;;;;;;;;4988208;28;47318;-61
2022/09/07 12:49:47;;;;;;;;;5.33;2.67;;;;;;;;4995448;28;46062;-61
2022/09/07 12:52:31;;;;;;;;;5.50;1.00;;;;;;;;4998321;28;46078;-61
2022/09/07 12:55:08;;;;;;;;;4.00;1.00;;;;;;;;4984525;28;45551;-61
2022/09/07 12:57:43;;;;;;;;;2.00;2.00;;;;;;;;4993464;28;45462;-61
2022/09/07 13:00:17;;;;;;;;;2.67;1.67;;;;;;;;4998579;28;46077;-62
2022/09/07 13:02:42;;;;;;;;;4.00;3.00;;;;;;;;5001879;28;45277;-61
2022/09/07 13:05:08;;;;;;;;;0.75;0.75;;;;;;;;4989460;28;45550;-61
2022/09/07 13:07:42;;;;;;;;;3.00;1.00;;;;;;;;4992591;28;45286;-61
2022/09/07 13:10:26;;;;;;;;;7.67;7.00;;;;;;;;4999346;28;47126;-61
2022/09/07 13:12:52;;;;;;;;;3.00;3.00;;;;;;;;4996070;28;45463;-62
2022/09/07 13:15:36;;;;;;;;;2.67;2.00;;;;;;;;4997660;28;45517;-62
2022/09/07 13:18:02;;;;;;;;;1.00;1.00;;;;;;;;5000873;28;46208;-63
2022/09/07 13:20:31;;;;;;;;;5.00;1.33;;;;;;;;4999798;28;46076;-63
2022/09/07 13:23:07;;;;;;;;;4.67;2.00;;;;;;;;4998830;28;45273;-61
2022/09/07 13:25:32;;;;;;;;;1.00;1.00;;;;;;;;4996477;28;45351;-63
2022/09/07 13:27:59;;;;;;;;;4.00;2.00;;;;;;;;4995327;28;45531;-62
2022/09/07 13:30:28;;;;;;;;;3.67;2.00;;;;;;;;4993063;28;46050;-62
2022/09/07 13:33:13;;;;;;;;;3.33;1.00;;;;;;;;5002587;28;45237;-62
2022/09/07 13:35:43;;;;;;;;;3.00;2.00;;;;;;;;5000259;28;45225;-62
2022/09/07 13:38:11;;;;;;;;;4.00;2.00;;;;;;;;4989047;28;45580;-62
2022/09/07 13:40:37;;;;;;;;;3.75;2.00;;;;;;;;4998761;28;45509;-62
2022/09/07 13:43:03;;;;;;;;;4.00;2.00;;;;;;;;5000227;28;45431;-62
2022/09/07 13:45:47;;;;;;;;;6.50;3.00;;;;;;;;4997453;28;45869;-62
2022/09/07 13:48:18;;;;;;;;;1.67;1.67;;;;;;;;4993573;28;47057;-62
2022/09/07 13:50:53;;;;;;;;;6.00;2.00;;;;;;;;4998490;28;46112;-61
2022/09/07 13:53:41;;;;;;;;;2.00;2.00;;;;;;;;4984894;28;45550;-61
2022/09/07 13:56:06;;;;;;;;;2.00;2.00;;;;;;;;4971601;28;45460;-61
2022/09/07 13:58:36;;;;;;;;;2.00;2.00;;;;;;;;4994309;28;45447;-61
2022/09/07 14:01:04;;;;;;;;;2.33;2.00;;;;;;;;4995695;28;45377;-61
2022/09/07 14:03:35;;;;;;;;;2.00;1.00;;;;;;;;4988592;28;45730;-62
2022/09/07 14:06:19;;;;;;;;;1.33;1.33;;;;;;;;4996819;28;45343;-62
2022/09/07 14:08:52;;;;;;;;;2.67;2.67;;;;;;;;4989450;28;45479;-62
2022/09/07 14:11:17;;;;;;;;;1.67;1.67;;;;;;;;4994647;28;45379;-61
2022/09/07 14:13:42;;;;;;;;;1.00;1.00;;;;;;;;4991386;28;45454;-62
2022/09/07 14:16:07;;;;;;;;;1.00;1.00;;;;;;;;5000541;28;45315;-62
2022/09/07 14:18:33;;;;;;;;;5.67;1.00;;;;;;;;4995645;28;45487;-62
2022/09/07 14:20:58;;;;;;;;;2.00;1.00;;;;;;;;4990265;28;45299;-62
2022/09/07 14:23:26;;;;;;;;;1.50;1.00;;;;;;;;4987607;28;45230;-62
2022/09/07 14:26:07;;;;;;;;;2.00;0.00;;;;;;;;4997570;28;45384;-62
2022/09/07 14:28:35;;;;;;;;;1.00;1.00;;;;;;;;4995301;28;45308;-62
2022/09/07 14:31:01;;;;;;;;;1.75;1.00;;;;;;;;4994409;28;45268;-62
2022/09/07 14:33:26;;;;;;;;;2.00;1.00;;;;;;;;4985346;28;45195;-62
2022/09/07 14:35:52;;;;;;;;;1.00;1.00;;;;;;;;5001961;28;45399;-62
2022/09/07 14:38:31;;;;;;;;;1.00;1.00;;;;;;;;4994136;28;45409;-62
2022/09/07 14:41:00;;;;;;;;;4.00;2.00;;;;;;;;4991755;28;46049;-62
2022/09/07 14:43:37;;;;;;;;;0.00;0.00;;;;;;;;4989930;28;45559;-62
2022/09/07 14:46:09;;;;;;;;;2.00;2.00;;;;;;;;4993592;28;45158;-62
2022/09/07 14:48:37;;;;;;;;;1.25;1.25;;;;;;;;4986427;28;45333;-61
2022/09/07 14:51:03;;;;;;;;;4.75;1.50;;;;;;;;4999321;28;46298;-62
2022/09/07 14:53:28;;;;;;;;;1.75;1.75;;;;;;;;4995938;28;45514;-62
2022/09/07 14:56:20;;;;;;;;;2.75;2.00;;;;;;;;4989556;28;45508;-62
2022/09/07 14:58:46;;;;;;;;;3.00;1.00;;;;;;;;5010724;28;45262;-62
2022/09/07 15:01:12;;;;;;;;;2.67;2.67;;;;;;;;4992658;28;45561;-62
2022/09/07 15:03:37;;;;;;;;;3.00;3.00;;;;;;;;4996907;28;45517;-61
2022/09/07 15:06:02;;;;;;;;;4.25;2.00;;;;;;;;4987249;28;45560;-61
2022/09/07 15:08:37;;;;;;;;;2.00;2.00;;;;;;;;4999535;28;45875;-61
2022/09/07 15:11:03;;;;;;;;;0.00;0.00;;;;;;;;4989069;28;46996;-61
2022/09/07 15:13:32;;;;;;;;;2.67;1.33;;;;;;;;4985637;28;45462;-61
2022/09/07 15:16:00;;;;;;;;;3.00;1.67;;;;;;;;4999435;28;45347;-61
2022/09/07 15:18:44;;;;;;;;;2.00;0.50;;;;;;;;4986546;28;45391;-61
2022/09/07 15:21:09;;;;;;;;;1.50;1.00;;;;;;;;4997555;28;45290;-61
2022/09/07 15:23:34;;;;;;;;;2.33;2.33;;;;;;;;4998493;28;45483;-61
2022/09/07 15:26:00;;;;;;;;;1.00;1.00;;;;;;;;4999079;28;45463;-61
2022/09/07 15:28:30;;;;;;;;;0.00;0.00;;;;;;;;4993401;28;45794;-61
2022/09/07 15:30:55;;;;;;;;;1.50;1.00;;;;;;;;4991230;28;48671;-61
2022/09/07 15:33:20;;;;;;;;;2.00;1.00;;;;;;;;4998110;28;45318;-61
2022/09/07 15:35:49;;;;;;;;;4.00;2.00;;;;;;;;4997861;28;45855;-61
2022/09/07 15:38:15;;;;;;;;;2.00;2.00;;;;;;;;5013810;28;45389;-61
2022/09/07 15:40:46;;;;;;;;;2.33;2.00;;;;;;;;5007937;28;46269;-62
2022/09/07 15:43:11;;;;;;;;;1.33;1.00;;;;;;;;4999437;28;45439;-62
2022/09/07 15:45:36;;;;;;;;;2.50;1.00;;;;;;;;4999707;28;45470;-62
2022/09/07 15:48:01;;;;;;;;;2.00;2.00;;;;;;;;5002789;28;45498;-62
2022/09/07 15:50:26;;;;;;;;;2.50;1.25;;;;;;;;5001123;28;45495;-61
2022/09/07 15:52:52;;;;;;;;;1.25;1.00;;;;;;;;5002303;28;45383;-53
2022/09/07 15:55:17;;;;;;;;;1.00;1.00;;;;;;;;4990576;28;45459;-51
2022/09/07 15:57:42;;;;;;;;;4.25;1.00;;;;;;;;4990761;28;45574;-55
2022/09/07 16:00:08;;;;;;;;;2.67;1.00;;;;;;;;5008710;28;46271;-52
2022/09/07 16:02:35;;;;;;;;;0.25;0.25;;;;;;;;5002350;28;45289;-49
2022/09/07 16:05:00;;;;;;;;;1.00;1.00;;;;;;;;4990667;28;45229;-52
2022/09/07 16:07:26;;;;;;;;;1.00;1.00;;;;;;;;4979639;28;45276;-51
2022/09/07 16:09:51;;;;;;;;;0.50;0.50;;;;;;;;4979294;28;46097;-51
2022/09/07 16:12:17;;;;;;;;;2.67;2.00;;;;;;;;5002201;28;45713;-52
2022/09/07 16:14:42;;;;;;;;;1.00;1.00;;;;;;;;4995317;28;45490;-54
2022/09/07 16:17:07;;;;;;;;;1.33;1.33;;;;;;;;4994612;28;45586;-58
2022/09/07 16:19:33;;;;;;;;;2.00;1.00;;;;;;;;4990500;28;45500;-57
2022/09/07 16:21:58;;;;;;;;;0.50;0.50;;;;;;;;5010522;28;45449;-59
2022/09/07 16:24:23;;;;;;;;;2.00;1.00;;;;;;;;4995574;28;45540;-59
2022/09/07 16:26:48;;;;;;;;;2.33;2.00;;;;;;;;4994147;28;45277;-59
2022/09/07 16:29:14;;;;;;;;;0.50;0.50;;;;;;;;4997418;28;46247;-56
2022/09/07 16:31:39;;;;;;;;;2.50;1.75;;;;;;;;5002755;28;45527;-55
2022/09/07 16:34:04;;;;;;;;;0.75;0.75;;;;;;;;5001943;28;45394;-55
2022/09/07 16:36:30;;;;;;;;;3.67;1.00;;;;;;;;4994220;28;46102;-55
2022/09/07 16:38:58;;;;;;;;;1.00;1.00;;;;;;;;4996241;28;46283;-54
2022/09/07 16:41:28;;;;;;;;;1.33;1.00;;;;;;;;4995618;28;45360;-56
2022/09/07 16:43:53;;;;;;;;;1.00;1.00;;;;;;;;4998947;28;45392;-52
2022/09/07 16:46:20;;;;;;;;;2.00;2.00;;;;;;;;5004613;28;45679;-55
2022/09/07 16:48:45;;;;;;;;;1.33;1.00;;;;;;;;4993127;28;47002;-53
2022/09/07 16:51:11;;;;;;;;;2.00;2.00;;;;;;;;4994234;28;45557;-55
2022/09/07 16:53:37;;;;;;;;;1.00;1.00;;;;;;;;4994169;28;45596;-53
2022/09/07 16:56:09;;;;;;;;;2.00;2.00;;;;;;;;4997144;28;45685;-56
2022/09/07 16:58:35;;;;;;;;;5.00;4.00;;;;;;;;4992637;28;47256;-55
2022/09/07 17:01:01;;;;;;;;;2.00;2.00;;;;;;;;4997556;28;45463;-52
2022/09/07 17:03:26;;;;;;;;;2.67;2.00;;;;;;;;5003065;28;45350;-51
2022/09/07 17:05:52;;;;;;;;;6.00;3.00;;;;;;;;4987576;28;46036;-53
2022/09/07 17:08:17;;;;;;;;;4.00;2.33;;;;;;;;4993274;28;46138;-52
2022/09/07 17:10:42;;;;;;;;;3.00;3.00;;;;;;;;4991521;28;45690;-52
2022/09/07 17:13:07;;;;;;;;;4.67;2.33;;;;;;;;4987762;28;46302;-51
2022/09/07 17:15:33;;;;;;;;;1.00;1.00;;;;;;;;4989879;28;45760;-56
2022/09/07 17:17:59;;;;;;;;;3.33;2.00;;;;;;;;4986383;28;46039;-55
2022/09/07 17:20:25;;;;;;;;;0.50;0.50;;;;;;;;4988746;28;45669;-54
2022/09/07 17:22:51;;;;;;;;;1.75;1.75;;;;;;;;4992896;28;45354;-55
2022/09/07 17:25:17;;;;;;;;;0.50;0.00;;;;;;;;4985894;28;45619;-53
2022/09/07 17:27:42;;;;;;;;;1.00;1.00;;;;;;;;4983643;28;46479;-55
2022/09/07 17:30:08;;;;;;;;;1.00;1.00;;;;;;;;4991419;28;45461;-54
2022/09/07 17:32:33;;;;;;;;;1.00;1.00;;;;;;;;4987129;28;45762;-54
2022/09/07 17:34:59;;;;;;;;;2.00;2.00;;;;;;;;4995845;28;45434;-56
2022/09/07 17:37:24;;;;;;;;;1.00;1.00;;;;;;;;4996728;28;45501;-55
2022/09/07 17:39:50;;;;;;;;;3.33;3.00;;;;;;;;4998958;28;45487;-57
2022/09/07 17:42:16;;;;;;;;;2.67;2.67;;;;;;;;4996156;28;45573;-53
2022/09/07 17:44:41;;;;;;;;;2.75;1.25;;;;;;;;4994817;28;45316;-54
2022/09/07 17:47:06;;;;;;;;;1.00;1.00;;;;;;;;4997614;28;46267;-55
2022/09/07 17:49:32;;;;;;;;;3.00;2.00;;;;;;;;4982207;28;46094;-52
2022/09/07 17:51:59;;;;;;;;;1.75;1.50;;;;;;;;4986305;28;45638;-53
2022/09/07 17:54:25;;;;;;;;;2.00;2.00;;;;;;;;4997372;28;45465;-52
2022/09/07 17:56:50;;;;;;;;;2.67;2.00;;;;;;;;5007195;28;45350;-53
2022/09/07 17:59:15;;;;;;;;;1.33;1.33;;;;;;;;5000542;28;45394;-53
2022/09/07 18:01:41;;;;;;;;;2.25;1.50;;;;;;;;4999064;28;45430;-57
2022/09/07 18:04:07;;;;;;;;;1.00;1.00;;;;;;;;4996038;28;45845;-51
2022/09/07 18:06:32;;;;;;;;;1.00;1.00;;;;;;;;4998609;28;45557;-54
2022/09/07 18:08:58;;;;;;;;;4.00;2.00;;;;;;;;5003552;28;45449;-53
2022/09/07 18:11:24;;;;;;;;;2.33;2.00;;;;;;;;4996990;28;45355;-58
2022/09/07 18:13:51;;;;;;;;;1.00;1.00;;;;;;;;4996008;28;45483;-56
2022/09/07 18:16:24;;;;;;;;;1.67;1.00;;;;;;;;4994215;28;47456;-57
2022/09/07 18:18:50;;;;;;;;;2.00;2.00;;;;;;;;4989770;28;45661;-56
2022/09/07 18:21:23;;;;;;;;;1.00;1.00;;;;;;;;5002454;28;45605;-54
2022/09/07 18:23:59;;;;;;;;;1.67;1.67;;;;;;;;4985945;28;45427;-54
2022/09/07 18:26:24;;;;;;;;;3.33;3.33;;;;;;;;4988541;28;45306;-52
2022/09/07 18:28:51;;;;;;;;;5.33;2.00;;;;;;;;4989207;28;45407;-54
2022/09/07 18:31:17;;;;;;;;;2.33;2.33;;;;;;;;4995401;28;45294;-55
2022/09/07 18:33:42;;;;;;;;;2.33;2.00;;;;;;;;4988493;28;45523;-55
2022/09/07 18:36:09;;;;;;;;;1.00;1.00;;;;;;;;4989930;28;45373;-54
2022/09/07 18:38:34;;;;;;;;;1.67;1.67;;;;;;;;4992992;28;45450;-56
2022/09/07 18:41:05;;;;;;;;;1.33;1.33;;;;;;;;4995883;28;45874;-53
2022/09/07 18:43:31;;;;;;;;;2.33;2.00;;;;;;;;4996965;28;45773;-54
2022/09/07 18:46:07;;;;;;;;;3.00;3.00;;;;;;;;4992623;28;45569;-56
2022/09/07 18:48:32;;;;;;;;;3.00;2.00;;;;;;;;4991571;28;45569;-57
2022/09/07 18:50:58;;;;;;;;;3.00;3.00;;;;;;;;5000224;28;45510;-54
2022/09/07 18:53:24;;;;;;;;;4.00;3.00;;;;;;;;4994956;28;45406;-55
2022/09/07 18:55:49;;;;;;;;;6.67;4.00;;;;;;;;4992617;28;45538;-55
2022/09/07 18:58:15;;;;;;;;;2.33;2.33;;;;;;;;4986970;28;46532;-54
2022/09/07 19:00:41;;;;;;;;;2.67;2.67;;;;;;;;4998381;28;45577;-53
2022/09/07 19:03:06;;;;;;;;;4.33;3.00;;;;;;;;5000745;28;45557;-54
2022/09/07 19:05:31;;;;;;;;;4.00;2.33;;;;;;;;4992719;28;46092;-54
2022/09/07 19:07:58;;;;;;;;;2.00;2.00;;;;;;;;4991126;28;45275;-55
2022/09/07 19:10:23;;;;;;;;;3.00;2.00;;;;;;;;4995103;28;45652;-57
2022/09/07 19:12:49;;;;;;;;;2.33;2.33;;;;;;;;4999751;28;45589;-55
2022/09/07 19:15:14;;;;;;;;;4.00;4.00;;;;;;;;4997281;28;46573;-55
2022/09/07 19:17:39;;;;;;;;;5.33;3.67;;;;;;;;4997795;28;45572;-55
2022/09/07 19:20:05;;;;;;;;;2.00;2.00;;;;;;;;4991088;28;45431;-54
2022/09/07 19:22:30;;;;;;;;;3.00;2.67;;;;;;;;4995484;28;45563;-55